sensor_id;sensor_type;location;lat;lon;timestamp;pressure;altitude;pressure_sealevel;temperature;humidity
52137;BME280;38130;49.012;8.368;2022-07-23T00:01:21;100156.88;;;25.46;80.44
52137;BME280;38130;49.012;8.368;2022-07-23T00:03:53;100165.50;;;25.39;80.65
52137;BME280;38130;49.012;8.368;2022-07-23T00:06:22;100161.19;;;25.38;81.14
52137;BME280;38130;49.012;8.368;2022-07-23T00:08:49;100158.03;;;25.35;81.29
52137;BME280;38130;49.012;8.368;2022-07-23T00:11:15;100160.34;;;25.38;81.72
52137;BME280;38130;49.012;8.368;2022-07-23T00:13:42;100160.19;;;25.23;82.30
52137;BME280;38130;49.012;8.368;2022-07-23T00:16:10;100161.69;;;25.10;83.41
52137;BME280;38130;49.012;8.368;2022-07-23T00:18:37;100164.78;;;24.97;84.55
52137;BME280;38130;49.012;8.368;2022-07-23T00:21:04;100170.75;;;24.91;85.60
52137;BME280;38130;49.012;8.368;2022-07-23T00:23:30;100169.88;;;24.74;86.39
52137;BME280;38130;49.012;8.368;2022-07-23T00:25:57;100174.03;;;24.68;86.84
52137;BME280;38130;49.012;8.368;2022-07-23T00:28:24;100184.84;;;24.67;86.29
52137;BME280;38130;49.012;8.368;2022-07-23T00:30:51;100170.19;;;24.63;87.25
52137;BME280;38130;49.012;8.368;2022-07-23T00:33:17;100171.75;;;24.90;83.77
52137;BME280;38130;49.012;8.368;2022-07-23T00:35:44;100178.13;;;25.05;81.02
52137;BME280;38130;49.012;8.368;2022-07-23T00:38:10;100176.47;;;25.04;79.99
52137;BME280;38130;49.012;8.368;2022-07-23T00:40:38;100177.31;;;25.04;78.27
52137;BME280;38130;49.012;8.368;2022-07-23T00:43:05;100162.34;;;25.20;78.14
52137;BME280;38130;49.012;8.368;2022-07-23T00:45:32;100163.19;;;25.12;75.84
52137;BME280;38130;49.012;8.368;2022-07-23T00:47:59;100166.47;;;24.98;76.17
52137;BME280;38130;49.012;8.368;2022-07-23T00:50:26;100162.66;;;25.00;75.88
52137;BME280;38130;49.012;8.368;2022-07-23T00:52:53;100157.66;;;24.97;75.59
52137;BME280;38130;49.012;8.368;2022-07-23T00:55:19;100157.28;;;24.84;75.85
52137;BME280;38130;49.012;8.368;2022-07-23T00:57:46;100168.53;;;24.70;75.98
52137;BME280;38130;49.012;8.368;2022-07-23T01:00:14;100163.72;;;24.65;77.09
52137;BME280;38130;49.012;8.368;2022-07-23T01:02:41;100162.41;;;24.69;76.93
52137;BME280;38130;49.012;8.368;2022-07-23T01:05:08;100164.56;;;24.66;77.08
52137;BME280;38130;49.012;8.368;2022-07-23T01:07:35;100157.75;;;24.71;76.43
52137;BME280;38130;49.012;8.368;2022-07-23T01:10:03;100158.41;;;24.65;76.85
52137;BME280;38130;49.012;8.368;2022-07-23T01:12:32;100145.44;;;24.62;77.57
52137;BME280;38130;49.012;8.368;2022-07-23T01:14:59;100144.09;;;24.66;77.27
52137;BME280;38130;49.012;8.368;2022-07-23T01:17:26;100136.75;;;24.52;78.27
52137;BME280;38130;49.012;8.368;2022-07-23T01:19:54;100133.91;;;24.54;78.88
52137;BME280;38130;49.012;8.368;2022-07-23T01:22:21;100152.03;;;24.58;78.56
52137;BME280;38130;49.012;8.368;2022-07-23T01:24:47;100149.03;;;24.53;78.48
52137;BME280;38130;49.012;8.368;2022-07-23T01:27:14;100160.69;;;24.52;78.23
52137;BME280;38130;49.012;8.368;2022-07-23T01:29:40;100167.00;;;24.25;80.83
52137;BME280;38130;49.012;8.368;2022-07-23T01:32:07;100162.09;;;24.04;82.81
52137;BME280;38130;49.012;8.368;2022-07-23T01:34:33;100160.31;;;23.87;84.52
52137;BME280;38130;49.012;8.368;2022-07-23T01:37:00;100154.28;;;23.77;85.57
52137;BME280;38130;49.012;8.368;2022-07-23T01:39:26;100158.91;;;24.01;83.98
52137;BME280;38130;49.012;8.368;2022-07-23T01:41:53;100153.47;;;24.10;83.45
52137;BME280;38130;49.012;8.368;2022-07-23T01:44:19;100165.59;;;24.13;82.29
52137;BME280;38130;49.012;8.368;2022-07-23T01:46:46;100163.66;;;24.23;81.26
52137;BME280;38130;49.012;8.368;2022-07-23T01:49:12;100171.25;;;24.36;79.12
52137;BME280;38130;49.012;8.368;2022-07-23T01:51:39;100165.59;;;24.31;78.12
52137;BME280;38130;49.012;8.368;2022-07-23T01:54:27;100157.53;;;24.23;78.13
52137;BME280;38130;49.012;8.368;2022-07-23T01:56:54;100153.94;;;24.06;77.74
52137;BME280;38130;49.012;8.368;2022-07-23T01:59:22;100146.53;;;24.17;77.47
52137;BME280;38130;49.012;8.368;2022-07-23T02:01:49;100148.06;;;24.20;76.49
52137;BME280;38130;49.012;8.368;2022-07-23T02:04:18;100150.00;;;24.44;73.53
52137;BME280;38130;49.012;8.368;2022-07-23T02:06:44;100146.22;;;24.20;72.92
52137;BME280;38130;49.012;8.368;2022-07-23T02:09:11;100138.66;;;24.00;74.07
52137;BME280;38130;49.012;8.368;2022-07-23T02:11:38;100149.88;;;23.94;73.30
52137;BME280;38130;49.012;8.368;2022-07-23T02:14:05;100155.59;;;23.99;74.38
52137;BME280;38130;49.012;8.368;2022-07-23T02:16:31;100158.63;;;24.12;73.13
52137;BME280;38130;49.012;8.368;2022-07-23T02:18:58;100168.06;;;24.06;73.21
52137;BME280;38130;49.012;8.368;2022-07-23T02:21:25;100178.19;;;24.03;73.35
52137;BME280;38130;49.012;8.368;2022-07-23T02:23:52;100177.72;;;24.07;73.43
52137;BME280;38130;49.012;8.368;2022-07-23T02:26:18;100179.75;;;23.87;73.94
52137;BME280;38130;49.012;8.368;2022-07-23T02:28:46;100181.31;;;23.54;75.31
52137;BME280;38130;49.012;8.368;2022-07-23T02:31:12;100179.25;;;23.30;77.06
52137;BME280;38130;49.012;8.368;2022-07-23T02:33:39;100174.19;;;23.37;77.32
52137;BME280;38130;49.012;8.368;2022-07-23T02:36:06;100181.03;;;23.57;75.94
52137;BME280;38130;49.012;8.368;2022-07-23T02:38:32;100186.47;;;23.74;74.56
52137;BME280;38130;49.012;8.368;2022-07-23T02:40:59;100194.22;;;23.67;73.65
52137;BME280;38130;49.012;8.368;2022-07-23T02:43:25;100188.03;;;23.67;74.56
52137;BME280;38130;49.012;8.368;2022-07-23T02:45:52;100189.50;;;23.61;74.27
52137;BME280;38130;49.012;8.368;2022-07-23T02:48:18;100197.63;;;23.59;74.69
52137;BME280;38130;49.012;8.368;2022-07-23T02:50:44;100197.97;;;23.82;72.96
52137;BME280;38130;49.012;8.368;2022-07-23T02:53:11;100204.84;;;23.93;71.87
52137;BME280;38130;49.012;8.368;2022-07-23T02:55:37;100209.16;;;23.94;71.24
52137;BME280;38130;49.012;8.368;2022-07-23T02:58:04;100211.41;;;23.81;72.14
52137;BME280;38130;49.012;8.368;2022-07-23T03:00:30;100216.88;;;23.79;72.33
52137;BME280;38130;49.012;8.368;2022-07-23T03:02:57;100217.19;;;23.76;72.17
52137;BME280;38130;49.012;8.368;2022-07-23T03:05:23;100221.28;;;23.71;72.72
52137;BME280;38130;49.012;8.368;2022-07-23T03:07:50;100217.47;;;23.55;73.55
52137;BME280;38130;49.012;8.368;2022-07-23T03:10:16;100222.25;;;23.34;75.00
52137;BME280;38130;49.012;8.368;2022-07-23T03:12:43;100226.13;;;23.22;75.37
52137;BME280;38130;49.012;8.368;2022-07-23T03:15:09;100225.97;;;23.06;75.38
52137;BME280;38130;49.012;8.368;2022-07-23T03:17:36;100220.50;;;23.07;75.14
52137;BME280;38130;49.012;8.368;2022-07-23T03:20:03;100227.25;;;23.19;74.38
52137;BME280;38130;49.012;8.368;2022-07-23T03:22:29;100238.81;;;23.00;76.44
52137;BME280;38130;49.012;8.368;2022-07-23T03:24:56;100241.91;;;23.41;73.61
52137;BME280;38130;49.012;8.368;2022-07-23T03:27:24;100244.41;;;23.43;73.02
52137;BME280;38130;49.012;8.368;2022-07-23T03:29:52;100235.81;;;23.31;73.67
52137;BME280;38130;49.012;8.368;2022-07-23T03:32:19;100232.78;;;23.08;74.38
52137;BME280;38130;49.012;8.368;2022-07-23T03:34:46;100235.56;;;22.89;75.84
52137;BME280;38130;49.012;8.368;2022-07-23T03:37:13;100226.53;;;22.72;76.82
52137;BME280;38130;49.012;8.368;2022-07-23T03:39:40;100229.63;;;22.67;77.10
52137;BME280;38130;49.012;8.368;2022-07-23T03:42:06;100222.66;;;22.66;77.12
52137;BME280;38130;49.012;8.368;2022-07-23T03:44:33;100209.88;;;22.52;77.95
52137;BME280;38130;49.012;8.368;2022-07-23T03:47:00;100205.00;;;22.57;76.92
52137;BME280;38130;49.012;8.368;2022-07-23T03:49:26;100211.66;;;22.61;76.61
52137;BME280;38130;49.012;8.368;2022-07-23T03:51:53;100210.69;;;22.62;76.74
52137;BME280;38130;49.012;8.368;2022-07-23T03:54:19;100207.97;;;22.72;75.89
52137;BME280;38130;49.012;8.368;2022-07-23T03:56:46;100224.00;;;22.70;76.68
52137;BME280;38130;49.012;8.368;2022-07-23T03:59:12;100239.44;;;22.94;74.53
52137;BME280;38130;49.012;8.368;2022-07-23T04:01:39;100252.16;;;22.81;75.27
52137;BME280;38130;49.012;8.368;2022-07-23T04:04:05;100265.88;;;22.77;75.56
52137;BME280;38130;49.012;8.368;2022-07-23T04:06:35;100259.88;;;22.75;75.49
52137;BME280;38130;49.012;8.368;2022-07-23T04:09:02;100258.91;;;22.76;75.52
52137;BME280;38130;49.012;8.368;2022-07-23T04:11:30;100261.25;;;22.79;75.55
52137;BME280;38130;49.012;8.368;2022-07-23T04:13:58;100269.09;;;22.70;76.21
52137;BME280;38130;49.012;8.368;2022-07-23T04:16:24;100271.13;;;22.59;76.78
52137;BME280;38130;49.012;8.368;2022-07-23T04:18:51;100259.69;;;22.58;78.08
52137;BME280;38130;49.012;8.368;2022-07-23T04:21:17;100246.47;;;22.76;77.37
52137;BME280;38130;49.012;8.368;2022-07-23T04:23:44;100239.25;;;22.68;78.76
52137;BME280;38130;49.012;8.368;2022-07-23T04:26:10;100240.53;;;22.64;82.26
52137;BME280;38130;49.012;8.368;2022-07-23T04:28:43;100254.22;;;22.60;82.57
52137;BME280;38130;49.012;8.368;2022-07-23T04:31:09;100269.19;;;22.51;87.04
52137;BME280;38130;49.012;8.368;2022-07-23T04:33:36;100273.97;;;22.38;92.44
52137;BME280;38130;49.012;8.368;2022-07-23T04:36:03;100272.88;;;22.31;94.02
52137;BME280;38130;49.012;8.368;2022-07-23T04:38:29;100281.81;;;22.30;96.22
52137;BME280;38130;49.012;8.368;2022-07-23T04:40:56;100290.88;;;22.27;99.07
52137;BME280;38130;49.012;8.368;2022-07-23T04:43:22;100293.94;;;22.23;100.00
52137;BME280;38130;49.012;8.368;2022-07-23T04:45:49;100293.69;;;22.26;100.00
52137;BME280;38130;49.012;8.368;2022-07-23T04:48:16;100290.69;;;22.38;100.00
52137;BME280;38130;49.012;8.368;2022-07-23T04:50:43;100286.94;;;22.41;96.18
52137;BME280;38130;49.012;8.368;2022-07-23T04:53:10;100289.25;;;22.54;96.90
52137;BME280;38130;49.012;8.368;2022-07-23T04:55:37;100292.06;;;22.52;93.63
52137;BME280;38130;49.012;8.368;2022-07-23T04:58:03;100301.97;;;22.40;95.52
52137;BME280;38130;49.012;8.368;2022-07-23T05:00:29;100308.00;;;22.33;93.28
52137;BME280;38130;49.012;8.368;2022-07-23T05:02:56;100316.53;;;22.17;96.37
52137;BME280;38130;49.012;8.368;2022-07-23T05:05:22;100321.84;;;22.17;98.74
52137;BME280;38130;49.012;8.368;2022-07-23T05:07:49;100318.38;;;22.17;98.89
52137;BME280;38130;49.012;8.368;2022-07-23T05:10:16;100322.38;;;22.21;98.79
52137;BME280;38130;49.012;8.368;2022-07-23T05:12:42;100315.41;;;22.29;97.55
52137;BME280;38130;49.012;8.368;2022-07-23T05:15:09;100318.19;;;22.37;95.36
52137;BME280;38130;49.012;8.368;2022-07-23T05:17:35;100304.66;;;22.31;94.55
52137;BME280;38130;49.012;8.368;2022-07-23T05:20:02;100301.13;;;22.50;93.82
52137;BME280;38130;49.012;8.368;2022-07-23T05:22:29;100296.03;;;22.29;95.58
52137;BME280;38130;49.012;8.368;2022-07-23T05:24:55;100284.31;;;22.02;97.94
52137;BME280;38130;49.012;8.368;2022-07-23T05:27:22;100287.13;;;22.01;96.58
52137;BME280;38130;49.012;8.368;2022-07-23T05:29:48;100273.31;;;21.97;95.75
52137;BME280;38130;49.012;8.368;2022-07-23T05:32:15;100271.50;;;22.07;98.11
52137;BME280;38130;49.012;8.368;2022-07-23T05:34:41;100278.38;;;22.57;95.90
52137;BME280;38130;49.012;8.368;2022-07-23T05:37:08;100283.94;;;22.54;94.94
52137;BME280;38130;49.012;8.368;2022-07-23T05:39:34;100286.44;;;23.02;87.74
52137;BME280;38130;49.012;8.368;2022-07-23T05:42:01;100304.06;;;22.93;86.58
52137;BME280;38130;49.012;8.368;2022-07-23T05:44:27;100316.22;;;22.96;87.21
52137;BME280;38130;49.012;8.368;2022-07-23T05:47:00;100324.41;;;23.02;85.92
52137;BME280;38130;49.012;8.368;2022-07-23T05:49:26;100318.00;;;23.05;86.87
52137;BME280;38130;49.012;8.368;2022-07-23T05:51:53;100320.19;;;23.10;90.97
52137;BME280;38130;49.012;8.368;2022-07-23T05:54:19;100316.03;;;23.07;95.87
52137;BME280;38130;49.012;8.368;2022-07-23T05:56:46;100314.69;;;22.93;94.33
52137;BME280;38130;49.012;8.368;2022-07-23T05:59:12;100320.38;;;22.98;96.85
52137;BME280;38130;49.012;8.368;2022-07-23T06:01:40;100320.84;;;22.84;100.00
52137;BME280;38130;49.012;8.368;2022-07-23T06:04:07;100329.22;;;22.89;100.00
52137;BME280;38130;49.012;8.368;2022-07-23T06:06:34;100333.69;;;22.79;100.00
52137;BME280;38130;49.012;8.368;2022-07-23T06:09:00;100335.69;;;22.67;100.00
52137;BME280;38130;49.012;8.368;2022-07-23T06:11:27;100339.31;;;22.66;100.00
52137;BME280;38130;49.012;8.368;2022-07-23T06:13:54;100339.59;;;22.73;100.00
52137;BME280;38130;49.012;8.368;2022-07-23T06:16:20;100344.91;;;22.73;100.00
52137;BME280;38130;49.012;8.368;2022-07-23T06:18:47;100350.31;;;22.91;100.00
52137;BME280;38130;49.012;8.368;2022-07-23T06:21:13;100357.72;;;23.15;100.00
52137;BME280;38130;49.012;8.368;2022-07-23T06:24:00;100372.88;;;23.05;99.23
52137;BME280;38130;49.012;8.368;2022-07-23T06:26:26;100380.31;;;22.82;92.67
52137;BME280;38130;49.012;8.368;2022-07-23T06:28:53;100376.63;;;22.46;100.00
52137;BME280;38130;49.012;8.368;2022-07-23T06:31:19;100366.16;;;22.34;97.91
52137;BME280;38130;49.012;8.368;2022-07-23T06:33:45;100373.13;;;22.35;97.83
52137;BME280;38130;49.012;8.368;2022-07-23T06:36:12;100370.63;;;22.24;98.90
52137;BME280;38130;49.012;8.368;2022-07-23T06:38:38;100362.44;;;22.27;99.09
52137;BME280;38130;49.012;8.368;2022-07-23T06:41:05;100359.50;;;22.30;98.88
52137;BME280;38130;49.012;8.368;2022-07-23T06:43:32;100358.47;;;22.60;98.42
52137;BME280;38130;49.012;8.368;2022-07-23T06:45:58;100363.47;;;22.63;95.67
52137;BME280;38130;49.012;8.368;2022-07-23T06:48:25;100373.34;;;22.71;96.28
52137;BME280;38130;49.012;8.368;2022-07-23T06:50:51;100381.78;;;22.47;96.85
52137;BME280;38130;49.012;8.368;2022-07-23T06:53:18;100379.72;;;22.41;99.29
52137;BME280;38130;49.012;8.368;2022-07-23T06:55:45;100381.81;;;22.28;99.79
52137;BME280;38130;49.012;8.368;2022-07-23T06:58:11;100380.66;;;22.40;100.00
52137;BME280;38130;49.012;8.368;2022-07-23T07:00:40;100374.81;;;22.46;100.00
52137;BME280;38130;49.012;8.368;2022-07-23T07:03:07;100374.53;;;22.49;99.75
52137;BME280;38130;49.012;8.368;2022-07-23T07:05:33;100383.31;;;22.50;100.00
52137;BME280;38130;49.012;8.368;2022-07-23T07:07:59;100391.00;;;22.43;100.00
52137;BME280;38130;49.012;8.368;2022-07-23T07:10:26;100385.00;;;22.41;99.67
52137;BME280;38130;49.012;8.368;2022-07-23T07:12:53;100375.66;;;22.37;100.00
52137;BME280;38130;49.012;8.368;2022-07-23T07:15:19;100378.19;;;22.29;99.89
52137;BME280;38130;49.012;8.368;2022-07-23T07:17:45;100378.16;;;22.00;100.00
52137;BME280;38130;49.012;8.368;2022-07-23T07:20:12;100371.34;;;22.07;100.00
52137;BME280;38130;49.012;8.368;2022-07-23T07:22:38;100375.81;;;22.16;100.00
52137;BME280;38130;49.012;8.368;2022-07-23T07:25:06;100391.28;;;22.21;100.00
52137;BME280;38130;49.012;8.368;2022-07-23T07:27:32;100386.81;;;22.21;100.00
52137;BME280;38130;49.012;8.368;2022-07-23T07:29:59;100391.72;;;22.26;100.00
52137;BME280;38130;49.012;8.368;2022-07-23T07:32:25;100399.38;;;22.29;100.00
52137;BME280;38130;49.012;8.368;2022-07-23T07:35:12;100391.00;;;22.24;100.00
52137;BME280;38130;49.012;8.368;2022-07-23T07:37:38;100398.25;;;22.41;100.00
52137;BME280;38130;49.012;8.368;2022-07-23T07:40:05;100406.56;;;22.75;100.00
52137;BME280;38130;49.012;8.368;2022-07-23T07:42:32;100400.28;;;23.60;97.20
52137;BME280;38130;49.012;8.368;2022-07-23T07:44:58;100391.31;;;24.68;87.48
52137;BME280;38130;49.012;8.368;2022-07-23T07:47:25;100395.22;;;25.50;80.24
52137;BME280;38130;49.012;8.368;2022-07-23T07:49:51;100400.50;;;25.84;73.74
52137;BME280;38130;49.012;8.368;2022-07-23T07:52:18;100408.75;;;26.55;70.62
52137;BME280;38130;49.012;8.368;2022-07-23T07:54:44;100419.53;;;27.03;67.92
52137;BME280;38130;49.012;8.368;2022-07-23T07:57:11;100425.19;;;27.63;64.25
52137;BME280;38130;49.012;8.368;2022-07-23T07:59:37;100418.81;;;27.95;63.01
52137;BME280;38130;49.012;8.368;2022-07-23T08:02:04;100416.88;;;28.35;58.22
52137;BME280;38130;49.012;8.368;2022-07-23T08:04:30;100414.56;;;28.84;55.23
52137;BME280;38130;49.012;8.368;2022-07-23T08:06:57;100417.03;;;28.33;56.02
52137;BME280;38130;49.012;8.368;2022-07-23T08:09:23;100417.41;;;28.30;57.54
52137;BME280;38130;49.012;8.368;2022-07-23T08:11:50;100425.25;;;28.84;56.70
52137;BME280;38130;49.012;8.368;2022-07-23T08:14:18;100419.88;;;29.07;55.23
52137;BME280;38130;49.012;8.368;2022-07-23T08:16:44;100430.34;;;27.96;59.54
52137;BME280;38130;49.012;8.368;2022-07-23T08:19:31;100438.63;;;27.78;60.90
52137;BME280;38130;49.012;8.368;2022-07-23T08:21:57;100437.19;;;27.90;60.96
52137;BME280;38130;49.012;8.368;2022-07-23T08:24:24;100434.06;;;28.41;59.04
52137;BME280;38130;49.012;8.368;2022-07-23T08:26:50;100431.25;;;28.72;57.75
52137;BME280;38130;49.012;8.368;2022-07-23T08:29:17;100441.75;;;29.26;55.08
52137;BME280;38130;49.012;8.368;2022-07-23T08:31:46;100435.59;;;29.55;52.87
52137;BME280;38130;49.012;8.368;2022-07-23T08:34:13;100431.66;;;29.72;53.20
52137;BME280;38130;49.012;8.368;2022-07-23T08:36:39;100427.50;;;30.05;51.22
52137;BME280;38130;49.012;8.368;2022-07-23T08:39:06;100436.56;;;30.47;50.45
52137;BME280;38130;49.012;8.368;2022-07-23T08:41:33;100436.13;;;30.93;48.34
52137;BME280;38130;49.012;8.368;2022-07-23T08:44:00;100438.03;;;31.06;47.89
52137;BME280;38130;49.012;8.368;2022-07-23T08:46:28;100442.06;;;30.88;48.50
52137;BME280;38130;49.012;8.368;2022-07-23T08:48:54;100436.81;;;30.52;49.43
52137;BME280;38130;49.012;8.368;2022-07-23T08:51:25;100442.84;;;29.97;50.51
52137;BME280;38130;49.012;8.368;2022-07-23T08:53:56;100444.16;;;28.91;54.47
52137;BME280;38130;49.012;8.368;2022-07-23T08:56:23;100434.84;;;29.46;53.86
52137;BME280;38130;49.012;8.368;2022-07-23T08:58:50;100439.38;;;29.81;51.93
52137;BME280;38130;49.012;8.368;2022-07-23T09:01:16;100438.81;;;29.35;53.58
52137;BME280;38130;49.012;8.368;2022-07-23T09:03:43;100431.13;;;29.47;53.64
52137;BME280;38130;49.012;8.368;2022-07-23T09:06:11;100435.38;;;29.12;54.75
52137;BME280;38130;49.012;8.368;2022-07-23T09:08:39;100432.97;;;29.02;55.07
52137;BME280;38130;49.012;8.368;2022-07-23T09:11:08;100447.13;;;28.36;58.25
52137;BME280;38130;49.012;8.368;2022-07-23T09:13:37;100442.06;;;27.87;60.15
52137;BME280;38130;49.012;8.368;2022-07-23T09:16:12;100442.34;;;27.61;62.55
52137;BME280;38130;49.012;8.368;2022-07-23T09:18:41;100433.75;;;27.82;61.44
52137;BME280;38130;49.012;8.368;2022-07-23T09:21:18;100431.13;;;27.73;61.70
52137;BME280;38130;49.012;8.368;2022-07-23T09:26:24;100423.72;;;29.64;53.57
52137;BME280;38130;49.012;8.368;2022-07-23T09:29:00;100427.84;;;30.17;52.44
52137;BME280;38130;49.012;8.368;2022-07-23T09:31:32;100427.19;;;29.79;53.74
52137;BME280;38130;49.012;8.368;2022-07-23T09:34:07;100424.41;;;29.87;53.67
52137;BME280;38130;49.012;8.368;2022-07-23T09:36:34;100427.31;;;30.07;51.86
52137;BME280;38130;49.012;8.368;2022-07-23T09:39:01;100432.34;;;30.38;50.50
52137;BME280;38130;49.012;8.368;2022-07-23T09:41:39;100420.16;;;30.35;48.90
52137;BME280;38130;49.012;8.368;2022-07-23T09:44:17;100423.97;;;30.69;48.24
52137;BME280;38130;49.012;8.368;2022-07-23T09:46:47;100428.94;;;31.35;47.24
52137;BME280;38130;49.012;8.368;2022-07-23T09:49:19;100422.84;;;31.61;45.29
52137;BME280;38130;49.012;8.368;2022-07-23T09:51:57;100421.19;;;31.59;44.04
52137;BME280;38130;49.012;8.368;2022-07-23T09:54:38;100431.00;;;31.87;42.93
52137;BME280;38130;49.012;8.368;2022-07-23T09:57:07;100429.63;;;31.50;44.21
52137;BME280;38130;49.012;8.368;2022-07-23T09:59:37;100425.19;;;31.29;45.11
52137;BME280;38130;49.012;8.368;2022-07-23T10:02:08;100424.81;;;31.39;45.09
52137;BME280;38130;49.012;8.368;2022-07-23T10:04:35;100425.81;;;30.96;44.70
52137;BME280;38130;49.012;8.368;2022-07-23T10:07:06;100421.06;;;30.64;46.36
52137;BME280;38130;49.012;8.368;2022-07-23T10:09:36;100431.00;;;30.98;45.79
52137;BME280;38130;49.012;8.368;2022-07-23T10:12:04;100426.25;;;31.00;46.15
52137;BME280;38130;49.012;8.368;2022-07-23T10:14:50;100426.03;;;30.67;46.64
52137;BME280;38130;49.012;8.368;2022-07-23T10:17:17;100427.34;;;31.12;45.45
52137;BME280;38130;49.012;8.368;2022-07-23T10:19:44;100438.50;;;31.09;45.38
52137;BME280;38130;49.012;8.368;2022-07-23T10:22:15;100437.50;;;30.82;45.92
52137;BME280;38130;49.012;8.368;2022-07-23T10:24:50;100429.72;;;30.45;46.87
52137;BME280;38130;49.012;8.368;2022-07-23T10:27:39;100431.00;;;30.70;46.90
52137;BME280;38130;49.012;8.368;2022-07-23T10:36:01;100433.91;;;29.68;49.64
52137;BME280;38130;49.012;8.368;2022-07-23T10:38:42;100430.63;;;30.09;48.73
52137;BME280;38130;49.012;8.368;2022-07-23T10:41:13;100431.22;;;30.26;48.57
52137;BME280;38130;49.012;8.368;2022-07-23T10:43:40;100423.16;;;30.47;49.10
52137;BME280;38130;49.012;8.368;2022-07-23T10:46:25;100424.00;;;30.76;45.35
52137;BME280;38130;49.012;8.368;2022-07-23T10:49:28;100427.91;;;31.01;44.36
52137;BME280;38130;49.012;8.368;2022-07-23T10:57:20;100419.81;;;30.66;44.34
52137;BME280;38130;49.012;8.368;2022-07-23T11:02:30;100418.63;;;30.05;46.08
52137;BME280;38130;49.012;8.368;2022-07-23T11:05:04;100426.25;;;29.87;46.20
52137;BME280;38130;49.012;8.368;2022-07-23T11:07:31;100425.34;;;30.16;45.16
52137;BME280;38130;49.012;8.368;2022-07-23T11:09:57;100424.69;;;30.35;44.73
52137;BME280;38130;49.012;8.368;2022-07-23T11:17:27;100427.69;;;30.96;42.93
52137;BME280;38130;49.012;8.368;2022-07-23T11:22:40;100432.66;;;30.50;45.07
52137;BME280;38130;49.012;8.368;2022-07-23T11:25:34;100431.38;;;30.03;46.21
52137;BME280;38130;49.012;8.368;2022-07-23T11:28:11;100420.69;;;29.67;47.77
52137;BME280;38130;49.012;8.368;2022-07-23T11:30:40;100413.72;;;29.72;48.00
52137;BME280;38130;49.012;8.368;2022-07-23T11:35:42;100423.69;;;29.78;47.79
52137;BME280;38130;49.012;8.368;2022-07-23T11:38:14;100421.00;;;29.78;48.16
52137;BME280;38130;49.012;8.368;2022-07-23T11:40:44;100423.16;;;29.68;48.62
52137;BME280;38130;49.012;8.368;2022-07-23T11:43:11;100417.81;;;29.68;49.19
52137;BME280;38130;49.012;8.368;2022-07-23T11:45:40;100421.34;;;29.90;48.33
52137;BME280;38130;49.012;8.368;2022-07-23T11:48:09;100421.06;;;30.21;48.17
52137;BME280;38130;49.012;8.368;2022-07-23T11:50:36;100412.78;;;30.65;46.80
52137;BME280;38130;49.012;8.368;2022-07-23T11:53:03;100412.78;;;30.93;45.46
52137;BME280;38130;49.012;8.368;2022-07-23T11:55:29;100412.50;;;30.82;46.17
52137;BME280;38130;49.012;8.368;2022-07-23T11:57:56;100416.84;;;30.83;46.14
52137;BME280;38130;49.012;8.368;2022-07-23T12:00:28;100406.28;;;30.81;45.72
52137;BME280;38130;49.012;8.368;2022-07-23T12:02:57;100403.19;;;30.56;46.30
52137;BME280;38130;49.012;8.368;2022-07-23T12:05:32;100401.66;;;30.68;46.24
52137;BME280;38130;49.012;8.368;2022-07-23T12:08:02;100396.50;;;30.67;46.60
52137;BME280;38130;49.012;8.368;2022-07-23T12:13:06;100385.75;;;30.18;47.78
52137;BME280;38130;49.012;8.368;2022-07-23T12:15:37;100383.06;;;30.18;48.20
52137;BME280;38130;49.012;8.368;2022-07-23T12:18:06;100384.13;;;30.23;47.58
52137;BME280;38130;49.012;8.368;2022-07-23T12:20:36;100384.34;;;30.22;46.91
52137;BME280;38130;49.012;8.368;2022-07-23T12:23:05;100383.94;;;30.25;47.13
52137;BME280;38130;49.012;8.368;2022-07-23T12:25:34;100388.47;;;30.24;46.51
52137;BME280;38130;49.012;8.368;2022-07-23T12:28:02;100396.88;;;30.15;45.90
52137;BME280;38130;49.012;8.368;2022-07-23T12:30:37;100388.97;;;29.70;45.54
52137;BME280;38130;49.012;8.368;2022-07-23T12:33:06;100388.22;;;29.62;46.40
52137;BME280;38130;49.012;8.368;2022-07-23T12:35:38;100384.91;;;29.60;46.57
52137;BME280;38130;49.012;8.368;2022-07-23T12:38:11;100378.91;;;29.58;46.00
52137;BME280;38130;49.012;8.368;2022-07-23T12:43:25;100385.44;;;29.04;48.17
52137;BME280;38130;49.012;8.368;2022-07-23T12:46:02;100382.75;;;29.04;48.03
52137;BME280;38130;49.012;8.368;2022-07-23T12:48:34;100381.25;;;28.87;48.74
52137;BME280;38130;49.012;8.368;2022-07-23T12:51:05;100384.66;;;28.81;49.60
52137;BME280;38130;49.012;8.368;2022-07-23T12:53:39;100377.03;;;28.92;48.11
52137;BME280;38130;49.012;8.368;2022-07-23T12:56:13;100375.91;;;29.16;47.25
52137;BME280;38130;49.012;8.368;2022-07-23T12:58:52;100373.66;;;29.35;46.77
52137;BME280;38130;49.012;8.368;2022-07-23T13:04:08;100362.09;;;29.49;46.38
52137;BME280;38130;49.012;8.368;2022-07-23T13:06:53;100372.69;;;29.21;46.66
52137;BME280;38130;49.012;8.368;2022-07-23T13:09:26;100377.94;;;29.00;47.18
52137;BME280;38130;49.012;8.368;2022-07-23T13:11:58;100370.19;;;28.90;47.77
52137;BME280;38130;49.012;8.368;2022-07-23T13:14:26;100365.19;;;29.02;47.48
52137;BME280;38130;49.012;8.368;2022-07-23T13:16:54;100369.63;;;29.24;47.53
52137;BME280;38130;49.012;8.368;2022-07-23T13:19:23;100378.50;;;29.25;47.29
52137;BME280;38130;49.012;8.368;2022-07-23T13:21:52;100382.56;;;29.20;47.50
52137;BME280;38130;49.012;8.368;2022-07-23T13:24:18;100367.88;;;29.16;47.99
52137;BME280;38130;49.012;8.368;2022-07-23T13:26:45;100362.66;;;29.44;47.54
52137;BME280;38130;49.012;8.368;2022-07-23T13:29:13;100371.94;;;29.63;46.81
52137;BME280;38130;49.012;8.368;2022-07-23T13:31:42;100368.19;;;29.79;46.62